sensor_id;sensor_type;location;lat;lon;timestamp;temperature;humidity
2929;DHT22;1474;51.460;7.150;2024-01-27T06:01:10;17.40;54.20
2929;DHT22;1474;51.460;7.150;2024-01-27T06:03:36;17.40;54.20
2929;DHT22;1474;51.460;7.150;2024-01-27T06:06:03;17.40;54.60
2929;DHT22;1474;51.460;7.150;2024-01-27T06:08:29;17.40;54.10
2929;DHT22;1474;51.460;7.150;2024-01-27T06:10:55;17.40;54.10
2929;DHT22;1474;51.460;7.150;2024-01-27T06:13:21;17.40;54.10
2929;DHT22;1474;51.460;7.150;2024-01-27T06:15:46;17.40;54.00
2929;DHT22;1474;51.460;7.150;2024-01-27T06:18:12;17.40;54.10
2929;DHT22;1474;51.460;7.150;2024-01-27T06:20:38;17.40;54.60
2929;DHT22;1474;51.460;7.150;2024-01-27T06:23:05;17.40;54.00
2929;DHT22;1474;51.460;7.150;2024-01-27T06:25:32;17.40;54.00
2929;DHT22;1474;51.460;7.150;2024-01-27T06:27:58;17.40;54.00
2929;DHT22;1474;51.460;7.150;2024-01-27T06:30:24;17.40;54.00
2929;DHT22;1474;51.460;7.150;2024-01-27T06:32:50;17.40;54.00
2929;DHT22;1474;51.460;7.150;2024-01-27T06:35:15;17.40;53.90
2929;DHT22;1474;51.460;7.150;2024-01-27T06:37:41;17.40;53.90
2929;DHT22;1474;51.460;7.150;2024-01-27T06:40:07;17.40;53.90
2929;DHT22;1474;51.460;7.150;2024-01-27T06:42:35;17.50;54.00
2929;DHT22;1474;51.460;7.150;2024-01-27T06:45:01;17.40;53.90
2929;DHT22;1474;51.460;7.150;2024-01-27T06:47:27;17.50;54.00
2929;DHT22;1474;51.460;7.150;2024-01-27T06:49:53;17.50;53.90
2929;DHT22;1474;51.460;7.150;2024-01-27T06:52:18;17.40;53.90
2929;DHT22;1474;51.460;7.150;2024-01-27T06:54:44;17.50;53.90
2929;DHT22;1474;51.460;7.150;2024-01-27T06:57:20;17.40;53.90
2929;DHT22;1474;51.460;7.150;2024-01-27T06:59:56;17.40;53.90
2929;DHT22;1474;51.460;7.150;2024-01-27T07:02:25;17.40;53.90
2929;DHT22;1474;51.460;7.150;2024-01-27T07:04:55;17.40;53.90
2929;DHT22;1474;51.460;7.150;2024-01-27T07:07:27;17.40;53.90
2929;DHT22;1474;51.460;7.150;2024-01-27T07:09:55;17.40;53.90
2929;DHT22;1474;51.460;7.150;2024-01-27T07:12:21;17.40;53.90
2929;DHT22;1474;51.460;7.150;2024-01-27T07:14:47;17.40;53.90
2929;DHT22;1474;51.460;7.150;2024-01-27T07:17:13;17.40;53.90
2929;DHT22;1474;51.460;7.150;2024-01-27T07:19:39;17.40;53.90
2929;DHT22;1474;51.460;7.150;2024-01-27T07:22:05;17.40;53.90
2929;DHT22;1474;51.460;7.150;2024-01-27T07:24:31;17.40;53.80
2929;DHT22;1474;51.460;7.150;2024-01-27T07:26:59;17.40;53.90
2929;DHT22;1474;51.460;7.150;2024-01-27T07:29:26;17.40;54.30
2929;DHT22;1474;51.460;7.150;2024-01-27T07:31:52;17.40;53.80
2929;DHT22;1474;51.460;7.150;2024-01-27T07:34:17;17.40;53.90
2929;DHT22;1474;51.460;7.150;2024-01-27T07:36:44;17.40;54.40
2929;DHT22;1474;51.460;7.150;2024-01-27T07:39:09;17.40;53.80
2929;DHT22;1474;51.460;7.150;2024-01-27T07:41:35;17.40;53.80
2929;DHT22;1474;51.460;7.150;2024-01-27T07:44:11;17.40;53.80
2929;DHT22;1474;51.460;7.150;2024-01-27T07:46:39;17.40;53.80
2929;DHT22;1474;51.460;7.150;2024-01-27T07:49:06;17.40;53.80
2929;DHT22;1474;51.460;7.150;2024-01-27T07:51:33;17.40;53.80
2929;DHT22;1474;51.460;7.150;2024-01-27T07:53:59;17.40;53.80
2929;DHT22;1474;51.460;7.150;2024-01-27T07:56:26;17.40;53.80
2929;DHT22;1474;51.460;7.150;2024-01-27T07:58:52;17.40;53.80
2929;DHT22;1474;51.460;7.150;2024-01-27T08:01:19;17.40;53.70
2929;DHT22;1474;51.460;7.150;2024-01-27T08:03:45;17.40;53.70
2929;DHT22;1474;51.460;7.150;2024-01-27T08:06:19;17.40;53.80
2929;DHT22;1474;51.460;7.150;2024-01-27T08:08:48;17.40;53.70
2929;DHT22;1474;51.460;7.150;2024-01-27T08:11:15;17.40;53.70
2929;DHT22;1474;51.460;7.150;2024-01-27T08:13:41;17.40;53.80
2929;DHT22;1474;51.460;7.150;2024-01-27T08:16:08;17.40;53.80
2929;DHT22;1474;51.460;7.150;2024-01-27T08:18:41;17.40;53.70
2929;DHT22;1474;51.460;7.150;2024-01-27T08:21:09;17.40;53.70
2929;DHT22;1474;51.460;7.150;2024-01-27T08:23:37;17.40;53.70
2929;DHT22;1474;51.460;7.150;2024-01-27T08:26:03;17.40;53.70
2929;DHT22;1474;51.460;7.150;2024-01-27T08:28:29;17.40;53.70
2929;DHT22;1474;51.460;7.150;2024-01-27T08:30:54;17.40;53.70
2929;DHT22;1474;51.460;7.150;2024-01-27T08:33:20;17.40;53.70
2929;DHT22;1474;51.460;7.150;2024-01-27T08:35:46;17.40;53.60
2929;DHT22;1474;51.460;7.150;2024-01-27T08:38:16;17.40;53.60
2929;DHT22;1474;51.460;7.150;2024-01-27T08:40:41;17.40;53.60
2929;DHT22;1474;51.460;7.150;2024-01-27T08:43:07;17.40;53.60
2929;DHT22;1474;51.460;7.150;2024-01-27T08:45:33;17.50;53.80
2929;DHT22;1474;51.460;7.150;2024-01-27T08:47:59;17.50;53.90
2929;DHT22;1474;51.460;7.150;2024-01-27T08:50:24;17.50;54.00
2929;DHT22;1474;51.460;7.150;2024-01-27T08:52:50;17.50;54.20
2929;DHT22;1474;51.460;7.150;2024-01-27T08:55:16;17.60;54.30
2929;DHT22;1474;51.460;7.150;2024-01-27T08:57:46;17.60;54.10
2929;DHT22;1474;51.460;7.150;2024-01-27T09:00:12;17.70;54.20
2929;DHT22;1474;51.460;7.150;2024-01-27T09:02:38;17.80;54.10
2929;DHT22;1474;51.460;7.150;2024-01-27T09:05:05;17.90;53.90
2929;DHT22;1474;51.460;7.150;2024-01-27T09:07:31;17.90;53.90
2929;DHT22;1474;51.460;7.150;2024-01-27T09:09:56;18.00;53.70
2929;DHT22;1474;51.460;7.150;2024-01-27T09:12:22;18.10;53.60
2929;DHT22;1474;51.460;7.150;2024-01-27T09:14:48;18.10;53.50
2929;DHT22;1474;51.460;7.150;2024-01-27T09:17:14;18.20;53.50
2929;DHT22;1474;51.460;7.150;2024-01-27T09:19:40;18.20;53.40
2929;DHT22;1474;51.460;7.150;2024-01-27T09:22:05;18.30;53.20
2929;DHT22;1474;51.460;7.150;2024-01-27T09:24:31;18.40;53.30
2929;DHT22;1474;51.460;7.150;2024-01-27T09:26:57;18.50;53.20
2929;DHT22;1474;51.460;7.150;2024-01-27T09:29:23;18.60;53.80
2929;DHT22;1474;51.460;7.150;2024-01-27T09:31:49;18.70;53.30
2929;DHT22;1474;51.460;7.150;2024-01-27T09:34:15;18.80;53.30
2929;DHT22;1474;51.460;7.150;2024-01-27T09:36:40;18.90;53.20
2929;DHT22;1474;51.460;7.150;2024-01-27T09:39:06;19.00;53.70
2929;DHT22;1474;51.460;7.150;2024-01-27T09:41:32;19.10;53.70
2929;DHT22;1474;51.460;7.150;2024-01-27T09:44:01;19.20;53.10
2929;DHT22;1474;51.460;7.150;2024-01-27T09:46:29;19.30;53.00
2929;DHT22;1474;51.460;7.150;2024-01-27T09:48:56;19.40;53.00
2929;DHT22;1474;51.460;7.150;2024-01-27T09:51:22;19.50;53.10
2929;DHT22;1474;51.460;7.150;2024-01-27T09:53:49;19.60;53.60
2929;DHT22;1474;51.460;7.150;2024-01-27T09:56:17;19.70;53.10
2929;DHT22;1474;51.460;7.150;2024-01-27T09:58:44;19.80;53.10
2929;DHT22;1474;51.460;7.150;2024-01-27T10:01:11;19.90;53.10
2929;DHT22;1474;51.460;7.150;2024-01-27T10:03:40;19.90;53.00
2929;DHT22;1474;51.460;7.150;2024-01-27T10:06:10;20.00;52.90
2929;DHT22;1474;51.460;7.150;2024-01-27T10:08:36;20.20;52.90
2929;DHT22;1474;51.460;7.150;2024-01-27T10:11:09;20.20;52.80
2929;DHT22;1474;51.460;7.150;2024-01-27T10:13:39;20.30;52.70
2929;DHT22;1474;51.460;7.150;2024-01-27T10:16:08;20.30;52.60
2929;DHT22;1474;51.460;7.150;2024-01-27T10:18:35;20.40;52.70
2929;DHT22;1474;51.460;7.150;2024-01-27T10:21:21;20.40;52.60
2929;DHT22;1474;51.460;7.150;2024-01-27T10:23:49;20.50;52.50
2929;DHT22;1474;51.460;7.150;2024-01-27T10:26:14;20.60;52.50
2929;DHT22;1474;51.460;7.150;2024-01-27T10:28:40;20.70;52.50
2929;DHT22;1474;51.460;7.150;2024-01-27T10:31:11;20.80;52.50
2929;DHT22;1474;51.460;7.150;2024-01-27T10:33:38;20.90;52.40
2929;DHT22;1474;51.460;7.150;2024-01-27T10:36:04;21.00;52.40
2929;DHT22;1474;51.460;7.150;2024-01-27T10:38:40;21.10;52.30
2929;DHT22;1474;51.460;7.150;2024-01-27T10:41:09;21.20;52.00
2929;DHT22;1474;51.460;7.150;2024-01-27T10:43:39;21.30;52.00
2929;DHT22;1474;51.460;7.150;2024-01-27T10:46:06;21.30;51.90
2929;DHT22;1474;51.460;7.150;2024-01-27T10:48:37;21.40;51.90
2929;DHT22;1474;51.460;7.150;2024-01-27T10:51:08;21.40;51.80
2929;DHT22;1474;51.460;7.150;2024-01-27T10:53:36;21.40;51.90
2929;DHT22;1474;51.460;7.150;2024-01-27T10:56:05;21.50;51.80
2929;DHT22;1474;51.460;7.150;2024-01-27T10:58:35;21.60;51.70
2929;DHT22;1474;51.460;7.150;2024-01-27T11:01:11;21.70;51.50
2929;DHT22;1474;51.460;7.150;2024-01-27T11:03:38;20.40;43.90
2929;DHT22;1474;51.460;7.150;2024-01-27T11:06:07;20.10;45.60
2929;DHT22;1474;51.460;7.150;2024-01-27T11:08:34;20.30;47.90
2929;DHT22;1474;51.460;7.150;2024-01-27T11:11:01;20.60;48.30
2929;DHT22;1474;51.460;7.150;2024-01-27T11:13:32;20.90;48.40
2929;DHT22;1474;51.460;7.150;2024-01-27T11:15:59;21.10;48.50
2929;DHT22;1474;51.460;7.150;2024-01-27T11:18:25;21.40;48.60
2929;DHT22;1474;51.460;7.150;2024-01-27T11:26:02;15.20;47.30
2929;DHT22;1474;51.460;7.150;2024-01-27T11:28:28;14.20;48.80
2929;DHT22;1474;51.460;7.150;2024-01-27T11:30:54;13.50;49.30
2929;DHT22;1474;51.460;7.150;2024-01-27T11:33:20;12.70;51.30
2929;DHT22;1474;51.460;7.150;2024-01-27T11:35:45;12.10;53.30
2929;DHT22;1474;51.460;7.150;2024-01-27T11:38:11;11.60;54.60
2929;DHT22;1474;51.460;7.150;2024-01-27T11:40:45;11.30;55.90
2929;DHT22;1474;51.460;7.150;2024-01-27T11:43:12;11.10;56.30
2929;DHT22;1474;51.460;7.150;2024-01-27T11:45:39;10.80;57.10
2929;DHT22;1474;51.460;7.150;2024-01-27T11:48:05;10.50;57.50
2929;DHT22;1474;51.460;7.150;2024-01-27T11:50:32;10.30;57.80
2929;DHT22;1474;51.460;7.150;2024-01-27T11:52:57;10.20;58.70
2929;DHT22;1474;51.460;7.150;2024-01-27T11:55:23;10.00;59.30
2929;DHT22;1474;51.460;7.150;2024-01-27T11:57:49;10.00;58.80
2929;DHT22;1474;51.460;7.150;2024-01-27T12:00:14;10.00;59.10
2929;DHT22;1474;51.460;7.150;2024-01-27T12:02:41;9.90;59.30
2929;DHT22;1474;51.460;7.150;2024-01-27T12:05:08;9.90;59.60
2929;DHT22;1474;51.460;7.150;2024-01-27T12:07:34;9.90;59.50
2929;DHT22;1474;51.460;7.150;2024-01-27T12:09:59;9.90;59.50
2929;DHT22;1474;51.460;7.150;2024-01-27T12:12:25;10.00;60.50
2929;DHT22;1474;51.460;7.150;2024-01-27T12:14:51;10.10;60.00
2929;DHT22;1474;51.460;7.150;2024-01-27T12:17:18;10.20;59.60
2929;DHT22;1474;51.460;7.150;2024-01-27T12:19:48;10.20;58.70
2929;DHT22;1474;51.460;7.150;2024-01-27T12:22:28;10.30;59.90
2929;DHT22;1474;51.460;7.150;2024-01-27T12:25:11;10.30;58.40
2929;DHT22;1474;51.460;7.150;2024-01-27T12:27:39;10.20;58.80
2929;DHT22;1474;51.460;7.150;2024-01-27T12:30:05;10.30;58.60
2929;DHT22;1474;51.460;7.150;2024-01-27T12:32:31;10.30;58.40
2929;DHT22;1474;51.460;7.150;2024-01-27T12:34:58;10.30;58.20
2929;DHT22;1474;51.460;7.150;2024-01-27T12:37:26;10.40;58.70
2929;DHT22;1474;51.460;7.150;2024-01-27T12:39:53;10.40;57.80
2929;DHT22;1474;51.460;7.150;2024-01-27T12:42:19;10.40;58.80
2929;DHT22;1474;51.460;7.150;2024-01-27T12:44:44;10.40;58.30
2929;DHT22;1474;51.460;7.150;2024-01-27T12:47:10;10.40;58.40
2929;DHT22;1474;51.460;7.150;2024-01-27T12:49:36;10.50;58.80
2929;DHT22;1474;51.460;7.150;2024-01-27T12:52:02;10.60;57.80
2929;DHT22;1474;51.460;7.150;2024-01-27T12:54:28;10.60;57.90
2929;DHT22;1474;51.460;7.150;2024-01-27T12:56:53;10.70;57.70
2929;DHT22;1474;51.460;7.150;2024-01-27T12:59:19;10.60;57.00
2929;DHT22;1474;51.460;7.150;2024-01-27T13:01:45;10.60;57.10
2929;DHT22;1474;51.460;7.150;2024-01-27T13:04:11;10.60;57.10
2929;DHT22;1474;51.460;7.150;2024-01-27T13:06:37;10.60;57.60
2929;DHT22;1474;51.460;7.150;2024-01-27T13:09:03;10.60;57.30
2929;DHT22;1474;51.460;7.150;2024-01-27T13:11:29;10.60;57.00
2929;DHT22;1474;51.460;7.150;2024-01-27T13:13:55;10.60;57.60
2929;DHT22;1474;51.460;7.150;2024-01-27T13:16:20;10.60;57.00
2929;DHT22;1474;51.460;7.150;2024-01-27T13:18:46;10.60;56.70
2929;DHT22;1474;51.460;7.150;2024-01-27T13:21:12;10.50;56.80
2929;DHT22;1474;51.460;7.150;2024-01-27T13:23:37;10.50;57.10
2929;DHT22;1474;51.460;7.150;2024-01-27T13:26:03;10.50;57.00
2929;DHT22;1474;51.460;7.150;2024-01-27T13:28:29;10.40;56.80
2929;DHT22;1474;51.460;7.150;2024-01-27T13:30:55;10.40;57.70
2929;DHT22;1474;51.460;7.150;2024-01-27T13:33:21;10.50;57.40
2929;DHT22;1474;51.460;7.150;2024-01-27T13:35:46;10.50;58.30
2929;DHT22;1474;51.460;7.150;2024-01-27T13:38:15;10.50;56.90
2929;DHT22;1474;51.460;7.150;2024-01-27T13:40:45;10.50;56.70
2929;DHT22;1474;51.460;7.150;2024-01-27T13:43:10;10.40;56.60
2929;DHT22;1474;51.460;7.150;2024-01-27T13:45:36;10.30;57.10
2929;DHT22;1474;51.460;7.150;2024-01-27T13:48:02;10.20;57.10
2929;DHT22;1474;51.460;7.150;2024-01-27T13:50:28;10.30;57.20
2929;DHT22;1474;51.460;7.150;2024-01-27T13:52:56;10.30;57.00
2929;DHT22;1474;51.460;7.150;2024-01-27T13:55:22;10.30;56.80
2929;DHT22;1474;51.460;7.150;2024-01-27T13:57:48;10.20;57.60
2929;DHT22;1474;51.460;7.150;2024-01-27T14:00:14;10.20;57.80
2929;DHT22;1474;51.460;7.150;2024-01-27T14:02:41;10.10;57.80
2929;DHT22;1474;51.460;7.150;2024-01-27T14:05:07;10.20;58.70
2929;DHT22;1474;51.460;7.150;2024-01-27T14:07:33;10.20;58.00
2929;DHT22;1474;51.460;7.150;2024-01-27T14:09:59;10.20;57.70
2929;DHT22;1474;51.460;7.150;2024-01-27T14:12:27;9.90;58.30
2929;DHT22;1474;51.460;7.150;2024-01-27T14:15:01;9.80;57.90
2929;DHT22;1474;51.460;7.150;2024-01-27T14:17:27;9.80;59.00
2929;DHT22;1474;51.460;7.150;2024-01-27T14:19:52;9.70;58.90
2929;DHT22;1474;51.460;7.150;2024-01-27T14:22:18;9.60;58.20
2929;DHT22;1474;51.460;7.150;2024-01-27T14:24:43;9.60;58.40
2929;DHT22;1474;51.460;7.150;2024-01-27T14:27:10;9.60;58.50
2929;DHT22;1474;51.460;7.150;2024-01-27T14:29:35;9.60;58.70
2929;DHT22;1474;51.460;7.150;2024-01-27T14:32:02;9.60;59.20
2929;DHT22;1474;51.460;7.150;2024-01-27T14:34:28;9.60;58.90
2929;DHT22;1474;51.460;7.150;2024-01-27T14:36:53;9.60;59.00
2929;DHT22;1474;51.460;7.150;2024-01-27T14:39:20;9.50;59.10
2929;DHT22;1474;51.460;7.150;2024-01-27T14:41:46;9.50;59.20
2929;DHT22;1474;51.460;7.150;2024-01-27T14:44:11;9.40;59.60
2929;DHT22;1474;51.460;7.150;2024-01-27T14:46:37;9.40;59.10
2929;DHT22;1474;51.460;7.150;2024-01-27T14:49:06;9.30;59.60
2929;DHT22;1474;51.460;7.150;2024-01-27T14:51:34;9.30;59.30
2929;DHT22;1474;51.460;7.150;2024-01-27T14:54:00;9.30;59.90
2929;DHT22;1474;51.460;7.150;2024-01-27T14:56:30;9.30;59.70
2929;DHT22;1474;51.460;7.150;2024-01-27T14:58:55;9.20;60.20
2929;DHT22;1474;51.460;7.150;2024-01-27T15:01:22;9.30;60.00
2929;DHT22;1474;51.460;7.150;2024-01-27T15:03:48;9.30;60.10
2929;DHT22;1474;51.460;7.150;2024-01-27T15:06:14;9.20;59.90
2929;DHT22;1474;51.460;7.150;2024-01-27T15:08:40;9.20;60.00
2929;DHT22;1474;51.460;7.150;2024-01-27T15:11:06;9.20;60.00
2929;DHT22;1474;51.460;7.150;2024-01-27T15:13:32;9.20;60.20
2929;DHT22;1474;51.460;7.150;2024-01-27T15:15:57;9.20;60.30
2929;DHT22;1474;51.460;7.150;2024-01-27T15:18:23;9.30;60.40
2929;DHT22;1474;51.460;7.150;2024-01-27T15:20:49;9.20;60.00
2929;DHT22;1474;51.460;7.150;2024-01-27T15:23:14;9.20;59.90
2929;DHT22;1474;51.460;7.150;2024-01-27T15:25:40;9.20;59.90
2929;DHT22;1474;51.460;7.150;2024-01-27T15:28:07;9.20;60.00
2929;DHT22;1474;51.460;7.150;2024-01-27T15:30:33;9.20;60.30
2929;DHT22;1474;51.460;7.150;2024-01-27T15:32:58;9.20;60.30
2929;DHT22;1474;51.460;7.150;2024-01-27T15:35:24;9.20;60.10
2929;DHT22;1474;51.460;7.150;2024-01-27T15:37:50;9.20;60.30
2929;DHT22;1474;51.460;7.150;2024-01-27T15:40:15;9.10;60.00
2929;DHT22;1474;51.460;7.150;2024-01-27T15:42:41;9.10;60.10
2929;DHT22;1474;51.460;7.150;2024-01-27T15:45:07;9.10;60.30
2929;DHT22;1474;51.460;7.150;2024-01-27T15:47:32;9.10;60.30
2929;DHT22;1474;51.460;7.150;2024-01-27T15:49:58;9.00;60.70
2929;DHT22;1474;51.460;7.150;2024-01-27T15:52:30;9.00;60.70
2929;DHT22;1474;51.460;7.150;2024-01-27T15:54:56;9.00;60.60
2929;DHT22;1474;51.460;7.150;2024-01-27T15:57:22;9.00;60.60
2929;DHT22;1474;51.460;7.150;2024-01-27T15:59:48;9.00;60.80
2929;DHT22;1474;51.460;7.150;2024-01-27T16:02:13;8.90;60.80
2929;DHT22;1474;51.460;7.150;2024-01-27T16:04:39;8.90;61.00
2929;DHT22;1474;51.460;7.150;2024-01-27T16:07:05;8.90;61.00
2929;DHT22;1474;51.460;7.150;2024-01-27T16:09:30;8.90;61.00
2929;DHT22;1474;51.460;7.150;2024-01-27T16:11:56;8.80;61.40
2929;DHT22;1474;51.460;7.150;2024-01-27T16:14:22;8.70;61.80
2929;DHT22;1474;51.460;7.150;2024-01-27T16:16:48;8.70;62.10
2929;DHT22;1474;51.460;7.150;2024-01-27T16:19:13;8.60;62.40
2929;DHT22;1474;51.460;7.150;2024-01-27T16:21:39;8.50;62.60
2929;DHT22;1474;51.460;7.150;2024-01-27T16:24:05;8.50;62.80
2929;DHT22;1474;51.460;7.150;2024-01-27T16:26:32;8.40;63.00
2929;DHT22;1474;51.460;7.150;2024-01-27T16:28:57;8.30;63.20
2929;DHT22;1474;51.460;7.150;2024-01-27T16:31:23;8.30;63.50
2929;DHT22;1474;51.460;7.150;2024-01-27T16:33:49;8.20;63.80
2929;DHT22;1474;51.460;7.150;2024-01-27T16:36:14;8.10;64.20
2929;DHT22;1474;51.460;7.150;2024-01-27T16:38:40;8.00;64.50
2929;DHT22;1474;51.460;7.150;2024-01-27T16:41:05;7.90;64.80
2929;DHT22;1474;51.460;7.150;2024-01-27T16:43:31;7.80;65.00
2929;DHT22;1474;51.460;7.150;2024-01-27T16:45:57;7.70;65.40
2929;DHT22;1474;51.460;7.150;2024-01-27T16:48:22;7.70;65.80
2929;DHT22;1474;51.460;7.150;2024-01-27T16:50:49;7.50;66.00
2929;DHT22;1474;51.460;7.150;2024-01-27T16:53:14;7.40;66.20
2929;DHT22;1474;51.460;7.150;2024-01-27T16:55:40;7.40;66.40
2929;DHT22;1474;51.460;7.150;2024-01-27T16:58:07;7.30;66.60
2929;DHT22;1474;51.460;7.150;2024-01-27T17:00:33;7.10;67.20
2929;DHT22;1474;51.460;7.150;2024-01-27T17:02:59;7.00;67.70
2929;DHT22;1474;51.460;7.150;2024-01-27T17:05:24;6.90;68.10
2929;DHT22;1474;51.460;7.150;2024-01-27T17:07:50;6.80;68.30
2929;DHT22;1474;51.460;7.150;2024-01-27T17:10:16;6.70;68.50
2929;DHT22;1474;51.460;7.150;2024-01-27T17:12:41;6.70;68.80
2929;DHT22;1474;51.460;7.150;2024-01-27T17:15:07;6.60;68.90
2929;DHT22;1474;51.460;7.150;2024-01-27T17:17:33;6.50;69.10
2929;DHT22;1474;51.460;7.150;2024-01-27T17:19:59;6.50;69.20
2929;DHT22;1474;51.460;7.150;2024-01-27T17:22:25;6.40;69.10
2929;DHT22;1474;51.460;7.150;2024-01-27T17:24:51;6.40;69.30
2929;DHT22;1474;51.460;7.150;2024-01-27T17:27:17;6.30;70.20
2929;DHT22;1474;51.460;7.150;2024-01-27T17:29:47;6.30;69.60
2929;DHT22;1474;51.460;7.150;2024-01-27T17:32:15;6.20;69.60
2929;DHT22;1474;51.460;7.150;2024-01-27T17:34:40;6.10;69.70
2929;DHT22;1474;51.460;7.150;2024-01-27T17:37:08;6.10;69.90
2929;DHT22;1474;51.460;7.150;2024-01-27T17:39:33;6.00;69.90
2929;DHT22;1474;51.460;7.150;2024-01-27T17:41:59;6.00;70.20
2929;DHT22;1474;51.460;7.150;2024-01-27T17:44:24;6.00;70.40
2929;DHT22;1474;51.460;7.150;2024-01-27T17:46:50;5.90;70.60
2929;DHT22;1474;51.460;7.150;2024-01-27T17:49:15;5.80;70.60
2929;DHT22;1474;51.460;7.150;2024-01-27T17:51:47;5.70;70.80
2929;DHT22;1474;51.460;7.150;2024-01-27T17:54:13;5.70;71.10
2929;DHT22;1474;51.460;7.150;2024-01-27T17:56:39;5.70;71.00
2929;DHT22;1474;51.460;7.150;2024-01-27T17:59:05;5.70;71.10
2929;DHT22;1474;51.460;7.150;2024-01-27T18:01:31;5.60;71.30
2929;DHT22;1474;51.460;7.150;2024-01-27T18:03:56;5.60;71.30
2929;DHT22;1474;51.460;7.150;2024-01-27T18:06:22;5.50;71.30
2929;DHT22;1474;51.460;7.150;2024-01-27T18:08:48;5.50;71.60
2929;DHT22;1474;51.460;7.150;2024-01-27T18:11:14;5.40;71.80
2929;DHT22;1474;51.460;7.150;2024-01-27T18:13:40;5.40;72.00
2929;DHT22;1474;51.460;7.150;2024-01-27T18:16:12;5.30;72.20
2929;DHT22;1474;51.460;7.150;2024-01-27T18:18:39;5.20;72.50
2929;DHT22;1474;51.460;7.150;2024-01-27T18:21:04;5.20;72.70
2929;DHT22;1474;51.460;7.150;2024-01-27T18:23:30;5.20;72.70
2929;DHT22;1474;51.460;7.150;2024-01-27T18:25:55;5.10;72.70
2929;DHT22;1474;51.460;7.150;2024-01-27T18:28:21;5.00;72.90
2929;DHT22;1474;51.460;7.150;2024-01-27T18:30:47;5.00;73.00
2929;DHT22;1474;51.460;7.150;2024-01-27T18:33:12;5.00;73.00
2929;DHT22;1474;51.460;7.150;2024-01-27T18:35:39;4.90;73.10
2929;DHT22;1474;51.460;7.150;2024-01-27T18:38:05;4.80;73.30
2929;DHT22;1474;51.460;7.150;2024-01-27T18:40:30;4.90;73.40
2929;DHT22;1474;51.460;7.150;2024-01-27T18:42:56;4.80;73.50
2929;DHT22;1474;51.460;7.150;2024-01-27T18:45:22;4.70;73.60
2929;DHT22;1474;51.460;7.150;2024-01-27T18:47:48;4.70;73.80
2929;DHT22;1474;51.460;7.150;2024-01-27T18:50:13;4.70;73.80
2929;DHT22;1474;51.460;7.150;2024-01-27T18:52:39;4.60;73.70
2929;DHT22;1474;51.460;7.150;2024-01-27T18:55:06;4.60;73.80
2929;DHT22;1474;51.460;7.150;2024-01-27T18:57:34;4.60;73.90
2929;DHT22;1474;51.460;7.150;2024-01-27T19:00:00;4.50;74.10
2929;DHT22;1474;51.460;7.150;2024-01-27T19:02:26;4.50;74.10
2929;DHT22;1474;51.460;7.150;2024-01-27T19:04:51;4.50;74.20
2929;DHT22;1474;51.460;7.150;2024-01-27T19:07:17;4.50;74.40
2929;DHT22;1474;51.460;7.150;2024-01-27T19:09:43;4.40;74.50
2929;DHT22;1474;51.460;7.150;2024-01-27T19:12:09;4.40;74.70
2929;DHT22;1474;51.460;7.150;2024-01-27T19:14:36;4.40;75.00
2929;DHT22;1474;51.460;7.150;2024-01-27T19:17:03;4.40;75.10
2929;DHT22;1474;51.460;7.150;2024-01-27T19:19:31;4.40;74.90
2929;DHT22;1474;51.460;7.150;2024-01-27T19:21:57;4.40;75.40
2929;DHT22;1474;51.460;7.150;2024-01-27T19:24:23;4.40;74.80
2929;DHT22;1474;51.460;7.150;2024-01-27T19:26:48;4.40;74.70
2929;DHT22;1474;51.460;7.150;2024-01-27T19:29:14;4.40;74.80
2929;DHT22;1474;51.460;7.150;2024-01-27T19:31:39;4.40;74.80
2929;DHT22;1474;51.460;7.150;2024-01-27T19:34:05;4.50;74.60
2929;DHT22;1474;51.460;7.150;2024-01-27T19:36:31;4.50;74.30
2929;DHT22;1474;51.460;7.150;2024-01-27T19:38:56;4.50;74.10
2929;DHT22;1474;51.460;7.150;2024-01-27T19:41:22;4.50;73.80
2929;DHT22;1474;51.460;7.150;2024-01-27T19:43:47;4.50;73.60
2929;DHT22;1474;51.460;7.150;2024-01-27T19:46:13;4.60;73.50
2929;DHT22;1474;51.460;7.150;2024-01-27T19:48:39;4.50;73.40
2929;DHT22;1474;51.460;7.150;2024-01-27T19:51:05;4.50;73.30
2929;DHT22;1474;51.460;7.150;2024-01-27T19:53:31;4.50;73.30
2929;DHT22;1474;51.460;7.150;2024-01-27T19:55:56;4.50;73.50
2929;DHT22;1474;51.460;7.150;2024-01-27T19:58:22;4.40;73.60
2929;DHT22;1474;51.460;7.150;2024-01-27T20:00:48;4.40;73.90
2929;DHT22;1474;51.460;7.150;2024-01-27T20:03:14;4.30;73.90
2929;DHT22;1474;51.460;7.150;2024-01-27T20:05:40;4.30;74.00
2929;DHT22;1474;51.460;7.150;2024-01-27T20:08:05;4.20;74.10
2929;DHT22;1474;51.460;7.150;2024-01-27T20:10:33;4.20;74.20
2929;DHT22;1474;51.460;7.150;2024-01-27T20:12:59;4.20;74.20
2929;DHT22;1474;51.460;7.150;2024-01-27T20:15:26;4.10;74.30
2929;DHT22;1474;51.460;7.150;2024-01-27T20:17:51;4.10;74.40
2929;DHT22;1474;51.460;7.150;2024-01-27T20:20:18;4.10;74.30
2929;DHT22;1474;51.460;7.150;2024-01-27T20:22:44;4.00;74.30
2929;DHT22;1474;51.460;7.150;2024-01-27T20:25:10;4.00;74.60
2929;DHT22;1474;51.460;7.150;2024-01-27T20:27:35;3.90;74.80
2929;DHT22;1474;51.460;7.150;2024-01-27T20:30:02;3.90;74.90
2929;DHT22;1474;51.460;7.150;2024-01-27T20:32:28;3.80;75.10
2929;DHT22;1474;51.460;7.150;2024-01-27T20:34:54;3.80;75.10
2929;DHT22;1474;51.460;7.150;2024-01-27T20:37:19;3.80;75.20
2929;DHT22;1474;51.460;7.150;2024-01-27T20:39:45;3.70;75.40
2929;DHT22;1474;51.460;7.150;2024-01-27T20:42:13;3.70;75.60
2929;DHT22;1474;51.460;7.150;2024-01-27T20:44:39;3.60;75.80
2929;DHT22;1474;51.460;7.150;2024-01-27T20:47:05;3.60;76.10
2929;DHT22;1474;51.460;7.150;2024-01-27T20:49:31;3.60;76.10
2929;DHT22;1474;51.460;7.150;2024-01-27T20:51:58;3.60;76.10
2929;DHT22;1474;51.460;7.150;2024-01-27T20:54:23;3.50;76.20
2929;DHT22;1474;51.460;7.150;2024-01-27T20:56:49;3.50;76.40
2929;DHT22;1474;51.460;7.150;2024-01-27T20:59:15;3.50;76.50
2929;DHT22;1474;51.460;7.150;2024-01-27T21:01:40;3.40;76.60
2929;DHT22;1474;51.460;7.150;2024-01-27T21:04:07;3.40;76.60
2929;DHT22;1474;51.460;7.150;2024-01-27T21:06:33;3.40;76.70
2929;DHT22;1474;51.460;7.150;2024-01-27T21:08:59;3.40;76.70
2929;DHT22;1474;51.460;7.150;2024-01-27T21:11:24;3.40;76.80
2929;DHT22;1474;51.460;7.150;2024-01-27T21:13:50;3.40;76.70
2929;DHT22;1474;51.460;7.150;2024-01-27T21:16:15;3.30;76.60
2929;DHT22;1474;51.460;7.150;2024-01-27T21:18:41;3.30;76.70
2929;DHT22;1474;51.460;7.150;2024-01-27T21:21:07;3.30;76.90
2929;DHT22;1474;51.460;7.150;2024-01-27T21:23:32;3.30;76.90
2929;DHT22;1474;51.460;7.150;2024-01-27T21:25:59;3.20;76.90
2929;DHT22;1474;51.460;7.150;2024-01-27T21:28:25;3.20;77.00
2929;DHT22;1474;51.460;7.150;2024-01-27T21:30:50;3.20;77.00
2929;DHT22;1474;51.460;7.150;2024-01-27T21:33:16;3.10;77.10
2929;DHT22;1474;51.460;7.150;2024-01-27T21:35:43;3.10;77.30
2929;DHT22;1474;51.460;7.150;2024-01-27T21:38:08;3.10;77.30
2929;DHT22;1474;51.460;7.150;2024-01-27T21:40:34;3.10;77.30
2929;DHT22;1474;51.460;7.150;2024-01-27T21:43:03;3.00;77.30
2929;DHT22;1474;51.460;7.150;2024-01-27T21:45:28;3.00;77.40
2929;DHT22;1474;51.460;7.150;2024-01-27T21:47:55;2.90;77.50
2929;DHT22;1474;51.460;7.150;2024-01-27T21:50:21;2.90;77.70
2929;DHT22;1474;51.460;7.150;2024-01-27T21:52:46;2.90;77.60
2929;DHT22;1474;51.460;7.150;2024-01-27T21:55:13;2.90;77.90
2929;DHT22;1474;51.460;7.150;2024-01-27T21:57:39;2.90;77.90
2929;DHT22;1474;51.460;7.150;2024-01-27T22:00:05;2.80;78.00
2929;DHT22;1474;51.460;7.150;2024-01-27T22:02:34;2.80;78.20
2929;DHT22;1474;51.460;7.150;2024-01-27T22:05:07;2.80;78.20
2929;DHT22;1474;51.460;7.150;2024-01-27T22:07:35;2.80;78.50
2929;DHT22;1474;51.460;7.150;2024-01-27T22:10:01;2.80;78.60